Time;durP1;ratioP1;P1;durP2;ratioP2;P2;SDS_P1;SDS_P2;PMS_P1;PMS_P2;Temp;Humidity;BMP_temperature;BMP_pressure;BME280_temperature;BME280_humidity;BME280_pressure;Samples;Min_cycle;Max_cycle;Signal;HPM_P1;HPM_P2
2021/07/17 00:00:35;;;;;;;20.02;13.85;;;;;;;;;;5036817;28;20805;-48
2021/07/17 00:03:03;;;;;;;19.85;13.50;;;;;;;;;;5036601;28;20176;-49
2021/07/17 00:05:29;;;;;;;18.92;13.00;;;;;;;;;;5036791;28;20224;-48
2021/07/17 00:07:57;;;;;;;18.17;11.82;;;;;;;;;;5036227;28;20813;-48
2021/07/17 00:10:25;;;;;;;18.83;11.95;;;;;;;;;;5036335;28;20579;-48
2021/07/17 00:12:51;;;;;;;22.88;14.70;;;;;;;;;;5036339;28;20180;-49
2021/07/17 00:15:18;;;;;;;19.77;13.73;;;;;;;;;;5036390;28;20167;-48
2021/07/17 00:17:44;;;;;;;18.98;12.48;;;;;;;;;;5035362;28;20191;-48
2021/07/17 00:20:12;;;;;;;18.67;12.88;;;;;;;;;;5036456;28;20179;-49
2021/07/17 00:22:38;;;;;;;25.05;12.95;;;;;;;;;;5035884;28;20203;-48
2021/07/17 00:25:04;;;;;;;20.10;13.27;;;;;;;;;;5036088;28;20200;-49
2021/07/17 00:27:30;;;;;;;21.13;13.65;;;;;;;;;;5035175;28;20219;-47
2021/07/17 00:29:56;;;;;;;18.92;12.88;;;;;;;;;;5036194;28;20200;-48
2021/07/17 00:32:22;;;;;;;22.17;13.30;;;;;;;;;;5036219;28;20483;-48
2021/07/17 00:34:48;;;;;;;18.48;11.93;;;;;;;;;;5036040;28;20183;-49
2021/07/17 00:37:14;;;;;;;17.10;12.35;;;;;;;;;;5035316;28;20237;-48
2021/07/17 00:39:40;;;;;;;19.83;12.43;;;;;;;;;;5035617;28;20200;-49
2021/07/17 00:42:06;;;;;;;19.98;12.80;;;;;;;;;;5035720;28;20168;-48
2021/07/17 00:44:32;;;;;;;21.38;13.57;;;;;;;;;;5035907;28;20195;-49
2021/07/17 00:46:58;;;;;;;17.50;12.38;;;;;;;;;;5035597;28;20164;-48
2021/07/17 00:49:27;;;;;;;20.35;12.88;;;;;;;;;;5035562;28;20194;-47
2021/07/17 00:51:53;;;;;;;22.10;12.85;;;;;;;;;;5035806;28;20180;-47
2021/07/17 00:54:19;;;;;;;17.42;11.82;;;;;;;;;;5035323;28;20238;-47
2021/07/17 00:56:47;;;;;;;20.08;12.93;;;;;;;;;;5034990;28;20241;-48
2021/07/17 00:59:16;;;;;;;16.88;11.73;;;;;;;;;;5035368;28;20258;-48
2021/07/17 01:01:42;;;;;;;19.77;12.35;;;;;;;;;;5035529;28;20290;-47
2021/07/17 01:04:09;;;;;;;18.55;12.25;;;;;;;;;;5035701;28;20299;-48
2021/07/17 01:06:35;;;;;;;16.20;11.40;;;;;;;;;;5034361;28;20180;-48
2021/07/17 01:09:01;;;;;;;21.52;13.38;;;;;;;;;;5034768;28;20182;-48
2021/07/17 01:11:27;;;;;;;21.15;11.68;;;;;;;;;;5034956;28;20584;-47
2021/07/17 01:13:53;;;;;;;17.20;11.20;;;;;;;;;;5035337;28;20270;-48
2021/07/17 01:16:19;;;;;;;18.67;11.95;;;;;;;;;;5034896;28;20251;-48
2021/07/17 01:18:45;;;;;;;16.80;11.90;;;;;;;;;;5034775;28;20187;-48
2021/07/17 01:21:15;;;;;;;14.80;11.77;;;;;;;;;;5035053;28;20167;-47
2021/07/17 01:26:45;;;;;;;16.33;10.65;;;;;;;;;;5033443;28;20202;-48
2021/07/17 01:29:11;;;;;;;16.73;10.38;;;;;;;;;;5034988;28;20595;-48
2021/07/17 01:31:37;;;;;;;18.40;11.75;;;;;;;;;;5034490;28;20211;-47
2021/07/17 01:34:03;;;;;;;14.48;10.75;;;;;;;;;;5035090;28;20180;-47
2021/07/17 01:36:29;;;;;;;23.88;12.27;;;;;;;;;;5034340;28;20275;-49
2021/07/17 01:38:55;;;;;;;16.38;10.98;;;;;;;;;;5034820;28;20188;-48
2021/07/17 01:41:21;;;;;;;19.90;11.35;;;;;;;;;;5034159;28;20186;-47
2021/07/17 01:43:47;;;;;;;16.17;11.13;;;;;;;;;;5033458;28;20200;-47
2021/07/17 01:46:16;;;;;;;15.85;12.07;;;;;;;;;;5034135;28;20461;-48
2021/07/17 01:48:49;;;;;;;20.92;11.63;;;;;;;;;;5034584;28;20187;-47
2021/07/17 01:51:15;;;;;;;12.98;9.88;;;;;;;;;;5034962;28;20474;-47
2021/07/17 01:53:41;;;;;;;16.05;9.82;;;;;;;;;;5034599;28;20191;-48
2021/07/17 01:56:07;;;;;;;13.73;9.77;;;;;;;;;;5033428;28;20834;-47
2021/07/17 01:58:33;;;;;;;13.70;9.20;;;;;;;;;;5034548;28;20187;-48
2021/07/17 02:00:59;;;;;;;16.27;10.10;;;;;;;;;;5034138;28;20818;-48
2021/07/17 02:03:25;;;;;;;14.45;9.15;;;;;;;;;;5034460;28;20172;-48
2021/07/17 02:05:51;;;;;;;14.88;9.98;;;;;;;;;;5034185;28;20172;-48
2021/07/17 02:08:17;;;;;;;13.52;10.40;;;;;;;;;;5033961;28;20222;-48
2021/07/17 02:10:43;;;;;;;14.68;10.05;;;;;;;;;;5034255;28;20168;-48
2021/07/17 02:13:11;;;;;;;14.02;10.18;;;;;;;;;;5034550;28;20191;-47
2021/07/17 02:15:44;;;;;;;12.82;8.98;;;;;;;;;;5034472;28;20176;-48
2021/07/17 02:18:11;;;;;;;11.07;8.57;;;;;;;;;;5033961;28;20233;-48
2021/07/17 02:20:37;;;;;;;13.65;9.15;;;;;;;;;;5034464;28;20206;-47
2021/07/17 02:23:03;;;;;;;11.88;8.35;;;;;;;;;;5034328;28;20195;-47
2021/07/17 02:25:29;;;;;;;12.98;8.38;;;;;;;;;;5033822;28;20249;-47
2021/07/17 02:27:55;;;;;;;12.48;9.40;;;;;;;;;;5033143;28;20250;-48
2021/07/17 02:30:21;;;;;;;11.57;8.15;;;;;;;;;;5034176;28;20180;-48
2021/07/17 02:32:47;;;;;;;11.90;8.18;;;;;;;;;;5034472;28;20179;-47
2021/07/17 02:35:14;;;;;;;8.63;7.55;;;;;;;;;;5034338;28;20187;-48
2021/07/17 02:37:39;;;;;;;9.18;7.22;;;;;;;;;;5033796;28;20176;-48
2021/07/17 02:40:06;;;;;;;9.10;7.65;;;;;;;;;;5033785;28;20245;-48
2021/07/17 02:42:33;;;;;;;9.32;7.82;;;;;;;;;;5033624;28;20183;-48
2021/07/17 02:44:59;;;;;;;10.10;7.22;;;;;;;;;;5034383;28;20265;-48
2021/07/17 02:47:25;;;;;;;11.07;7.75;;;;;;;;;;5033715;28;20180;-47
2021/07/17 02:49:51;;;;;;;11.40;7.85;;;;;;;;;;5033733;28;20536;-48
2021/07/17 02:52:17;;;;;;;10.52;8.15;;;;;;;;;;5033778;28;20502;-48
2021/07/17 02:54:43;;;;;;;9.95;6.75;;;;;;;;;;5035070;28;20188;-48
2021/07/17 02:57:09;;;;;;;13.18;7.68;;;;;;;;;;5036883;28;20211;-47
2021/07/17 02:59:35;;;;;;;9.98;8.20;;;;;;;;;;5037329;28;20519;-47
2021/07/17 03:02:01;;;;;;;11.73;8.48;;;;;;;;;;5037832;28;20188;-48
2021/07/17 03:04:27;;;;;;;15.20;9.48;;;;;;;;;;5037756;28;20204;-48
2021/07/17 03:06:53;;;;;;;18.33;10.13;;;;;;;;;;5037430;28;20171;-48
2021/07/17 03:09:19;;;;;;;16.23;9.63;;;;;;;;;;5037402;28;20206;-48
2021/07/17 03:11:45;;;;;;;19.65;10.05;;;;;;;;;;5037123;28;20790;-48
2021/07/17 03:14:11;;;;;;;18.35;9.68;;;;;;;;;;5037684;28;20180;-48
2021/07/17 03:16:38;;;;;;;17.65;11.05;;;;;;;;;;5037173;28;20176;-47
2021/07/17 03:19:04;;;;;;;19.75;10.70;;;;;;;;;;5037382;28;20168;-48
2021/07/17 03:21:30;;;;;;;21.65;11.25;;;;;;;;;;5037477;28;20552;-48
2021/07/17 03:23:57;;;;;;;19.08;9.55;;;;;;;;;;5037692;28;20199;-47
2021/07/17 03:26:24;;;;;;;18.48;10.77;;;;;;;;;;5036526;28;20180;-48
2021/07/17 03:28:50;;;;;;;17.88;10.45;;;;;;;;;;5037053;28;20180;-47
2021/07/17 03:31:16;;;;;;;19.63;10.43;;;;;;;;;;5037464;28;20168;-47
2021/07/17 03:33:42;;;;;;;19.67;10.18;;;;;;;;;;5037360;28;20186;-49
2021/07/17 03:36:08;;;;;;;19.83;11.02;;;;;;;;;;5036813;28;20168;-48
2021/07/17 03:38:34;;;;;;;18.65;10.93;;;;;;;;;;5036552;28;20528;-48
2021/07/17 03:41:00;;;;;;;20.25;10.32;;;;;;;;;;5036680;28;20187;-48
2021/07/17 03:43:26;;;;;;;16.15;9.68;;;;;;;;;;5036978;28;20183;-49
2021/07/17 03:45:52;;;;;;;17.45;10.32;;;;;;;;;;5036775;28;20172;-48
2021/07/17 03:48:18;;;;;;;16.60;10.35;;;;;;;;;;5036943;28;20203;-48
2021/07/17 03:50:44;;;;;;;23.75;10.70;;;;;;;;;;5037142;28;20164;-47
2021/07/17 03:53:10;;;;;;;17.58;9.55;;;;;;;;;;5036929;28;20593;-48
2021/07/17 03:55:37;;;;;;;15.77;10.13;;;;;;;;;;5036375;28;20238;-49
2021/07/17 03:58:03;;;;;;;16.35;10.38;;;;;;;;;;5036001;28;20215;-49
2021/07/17 04:00:29;;;;;;;24.13;10.38;;;;;;;;;;5036673;28;20176;-49
2021/07/17 04:02:55;;;;;;;13.38;9.43;;;;;;;;;;5036790;28;20254;-47
2021/07/17 04:05:21;;;;;;;16.55;9.77;;;;;;;;;;5036180;28;20299;-48
2021/07/17 04:07:47;;;;;;;16.95;9.20;;;;;;;;;;5035969;28;20582;-47
2021/07/17 04:10:14;;;;;;;20.20;10.10;;;;;;;;;;5036290;28;20597;-47
2021/07/17 04:12:40;;;;;;;18.75;10.10;;;;;;;;;;5036197;28;20211;-48
2021/07/17 04:15:06;;;;;;;14.45;8.60;;;;;;;;;;5036504;28;20459;-48
2021/07/17 04:17:32;;;;;;;14.80;9.38;;;;;;;;;;5027754;28;20181;-48
2021/07/17 04:19:59;;;;;;;12.23;8.68;;;;;;;;;;5036350;28;20183;-47
2021/07/17 04:22:25;;;;;;;15.45;9.02;;;;;;;;;;5036067;28;20198;-48
2021/07/17 04:24:51;;;;;;;16.65;8.80;;;;;;;;;;5036335;28;20211;-48
2021/07/17 04:27:17;;;;;;;16.83;9.68;;;;;;;;;;5035196;28;20547;-47
2021/07/17 04:29:43;;;;;;;15.35;9.20;;;;;;;;;;5035910;28;20176;-48
2021/07/17 04:32:09;;;;;;;14.02;8.88;;;;;;;;;;5036196;28;20200;-48
2021/07/17 04:34:35;;;;;;;15.60;8.82;;;;;;;;;;5036184;28;20486;-47
2021/07/17 04:37:01;;;;;;;17.55;9.30;;;;;;;;;;5035471;28;20171;-47
2021/07/17 04:39:27;;;;;;;19.65;10.50;;;;;;;;;;5035111;28;20188;-47
2021/07/17 04:41:53;;;;;;;19.88;10.95;;;;;;;;;;5035451;28;20175;-47
2021/07/17 04:44:19;;;;;;;20.85;10.40;;;;;;;;;;5034517;28;20215;-47
2021/07/17 04:46:45;;;;;;;22.00;11.10;;;;;;;;;;5033413;28;20250;-47
2021/07/17 04:49:11;;;;;;;18.30;11.38;;;;;;;;;;5034234;28;20183;-47
2021/07/17 04:51:37;;;;;;;14.82;9.43;;;;;;;;;;5033639;28;20191;-48
2021/07/17 04:54:03;;;;;;;19.70;9.57;;;;;;;;;;5034022;28;20194;-48
2021/07/17 04:56:29;;;;;;;15.77;10.50;;;;;;;;;;5033796;28;20201;-47
2021/07/17 04:58:55;;;;;;;19.80;10.73;;;;;;;;;;5035245;28;20663;-48
2021/07/17 05:01:21;;;;;;;22.75;10.98;;;;;;;;;;5035404;28;20180;-49
2021/07/17 05:03:47;;;;;;;18.60;10.65;;;;;;;;;;5035517;28;20206;-47
2021/07/17 05:06:13;;;;;;;26.58;11.25;;;;;;;;;;5034534;28;20547;-48
2021/07/17 05:08:39;;;;;;;25.67;10.93;;;;;;;;;;5035001;28;20234;-47
2021/07/17 05:11:05;;;;;;;21.20;11.23;;;;;;;;;;5035052;28;20226;-47
2021/07/17 05:13:31;;;;;;;23.75;11.70;;;;;;;;;;5035391;28;20176;-47
2021/07/17 05:15:57;;;;;;;19.48;10.85;;;;;;;;;;5034770;28;20191;-47
2021/07/17 05:18:23;;;;;;;19.27;10.63;;;;;;;;;;5033745;28;20184;-47
2021/07/17 05:20:49;;;;;;;24.77;10.65;;;;;;;;;;5034824;28;20573;-47
2021/07/17 05:23:16;;;;;;;16.58;9.82;;;;;;;;;;5034610;28;20184;-47
2021/07/17 05:25:44;;;;;;;18.00;10.40;;;;;;;;;;5034831;28;20206;-47
2021/07/17 05:28:10;;;;;;;23.65;10.40;;;;;;;;;;5030643;28;20175;-47
2021/07/17 05:30:35;;;;;;;22.98;9.70;;;;;;;;;;5033917;28;20570;-47
2021/07/17 05:33:02;;;;;;;21.02;9.68;;;;;;;;;;5033931;28;20187;-48
2021/07/17 05:35:28;;;;;;;18.30;9.70;;;;;;;;;;5033666;28;20183;-48
2021/07/17 05:37:55;;;;;;;16.17;9.73;;;;;;;;;;5032943;28;20180;-47
2021/07/17 05:40:21;;;;;;;16.63;9.85;;;;;;;;;;5033804;28;20188;-48
2021/07/17 05:42:47;;;;;;;16.80;9.20;;;;;;;;;;5033719;28;20188;-48
2021/07/17 05:45:13;;;;;;;16.20;8.90;;;;;;;;;;5034976;28;20217;-47
2021/07/17 05:47:39;;;;;;;15.63;9.43;;;;;;;;;;5033837;28;20229;-48
2021/07/17 05:50:06;;;;;;;15.38;9.07;;;;;;;;;;5033730;28;20202;-47
2021/07/17 05:52:32;;;;;;;16.13;9.13;;;;;;;;;;5033698;28;20197;-48
2021/07/17 05:54:58;;;;;;;14.45;9.02;;;;;;;;;;5033518;28;20203;-49
2021/07/17 05:57:25;;;;;;;18.30;9.50;;;;;;;;;;5033448;28;20184;-49
2021/07/17 05:59:51;;;;;;;14.82;8.13;;;;;;;;;;5033843;28;20187;-49
2021/07/17 06:02:17;;;;;;;14.80;8.73;;;;;;;;;;5033941;28;20192;-49
2021/07/17 06:04:43;;;;;;;15.95;9.35;;;;;;;;;;5034151;28;20199;-49
2021/07/17 06:07:09;;;;;;;14.60;9.32;;;;;;;;;;5034114;28;20226;-49
2021/07/17 06:09:35;;;;;;;15.38;8.45;;;;;;;;;;5034396;28;20538;-48
2021/07/17 06:12:02;;;;;;;14.30;8.20;;;;;;;;;;5034220;28;20180;-48
2021/07/17 06:14:28;;;;;;;13.80;8.40;;;;;;;;;;5034484;28;20477;-48
2021/07/17 06:16:54;;;;;;;13.30;7.80;;;;;;;;;;5034010;28;20272;-47
2021/07/17 06:19:20;;;;;;;13.63;8.30;;;;;;;;;;5034011;28;20176;-48
2021/07/17 06:21:45;;;;;;;16.15;7.93;;;;;;;;;;5034318;28;20176;-48
2021/07/17 06:24:12;;;;;;;13.27;7.57;;;;;;;;;;5033793;28;20203;-48
2021/07/17 06:26:38;;;;;;;10.77;7.18;;;;;;;;;;5033525;28;20262;-49
2021/07/17 06:29:04;;;;;;;11.10;6.90;;;;;;;;;;5035928;28;20595;-49
2021/07/17 06:31:30;;;;;;;12.60;7.30;;;;;;;;;;5038376;28;20255;-49
2021/07/17 06:33:56;;;;;;;10.50;6.68;;;;;;;;;;5038106;28;20234;-49
2021/07/17 06:36:22;;;;;;;12.35;7.60;;;;;;;;;;5037718;28;20183;-48
2021/07/17 06:38:48;;;;;;;11.63;7.60;;;;;;;;;;5037910;28;20188;-48
2021/07/17 06:41:14;;;;;;;12.43;6.93;;;;;;;;;;5037729;28;20245;-48
2021/07/17 06:43:40;;;;;;;9.82;6.55;;;;;;;;;;5038147;28;20207;-47
2021/07/17 06:46:06;;;;;;;16.27;8.32;;;;;;;;;;5037496;28;20275;-48
2021/07/17 06:48:32;;;;;;;11.10;6.90;;;;;;;;;;5024124;28;20185;-48
2021/07/17 06:50:58;;;;;;;23.40;13.07;;;;;;;;;;5037547;28;20187;-48
2021/07/17 06:53:24;;;;;;;19.63;12.48;;;;;;;;;;5037840;28;20658;-48
2021/07/17 06:55:50;;;;;;;16.67;9.57;;;;;;;;;;5037251;28;20176;-48
2021/07/17 06:58:16;;;;;;;14.23;9.30;;;;;;;;;;5037979;28;20190;-48
2021/07/17 07:00:42;;;;;;;11.65;7.68;;;;;;;;;;5037463;28;20194;-48
2021/07/17 07:03:08;;;;;;;14.85;8.10;;;;;;;;;;5037329;28;20783;-49
2021/07/17 07:05:34;;;;;;;11.00;7.32;;;;;;;;;;5037644;28;20279;-47
2021/07/17 07:08:00;;;;;;;11.02;7.20;;;;;;;;;;5037268;28;20189;-48
2021/07/17 07:10:26;;;;;;;12.50;7.47;;;;;;;;;;5037278;28;20184;-48
2021/07/17 07:12:52;;;;;;;9.65;7.05;;;;;;;;;;5037229;28;20337;-48
2021/07/17 07:15:18;;;;;;;9.18;6.32;;;;;;;;;;5037355;28;20246;-48
2021/07/17 07:17:44;;;;;;;10.07;6.43;;;;;;;;;;5036665;28;20195;-49
2021/07/17 07:20:11;;;;;;;7.55;5.80;;;;;;;;;;5036441;28;20176;-48
2021/07/17 07:22:38;;;;;;;8.18;5.80;;;;;;;;;;5035941;28;20202;-47
2021/07/17 07:25:04;;;;;;;8.68;5.53;;;;;;;;;;5036914;28;20206;-49
2021/07/17 07:27:30;;;;;;;8.23;5.20;;;;;;;;;;5036386;28;20230;-48
2021/07/17 07:29:56;;;;;;;7.05;5.13;;;;;;;;;;5037100;28;20176;-48
2021/07/17 07:32:22;;;;;;;5.50;4.88;;;;;;;;;;5035414;28;20264;-48
2021/07/17 07:34:48;;;;;;;6.90;5.70;;;;;;;;;;5037295;28;20190;-48
2021/07/17 07:37:14;;;;;;;6.35;4.70;;;;;;;;;;5040412;28;20179;-48
2021/07/17 07:39:40;;;;;;;8.18;4.65;;;;;;;;;;5056511;28;20167;-51
2021/07/17 07:42:06;;;;;;;5.50;4.40;;;;;;;;;;5036251;28;20180;-49
2021/07/17 07:44:33;;;;;;;5.28;4.72;;;;;;;;;;5037356;28;20424;-49
2021/07/17 07:46:59;;;;;;;5.70;4.38;;;;;;;;;;5036777;28;20207;-48
2021/07/17 07:49:25;;;;;;;5.40;3.85;;;;;;;;;;5036751;28;20199;-49
2021/07/17 07:51:51;;;;;;;5.10;3.90;;;;;;;;;;5036980;28;20188;-48
2021/07/17 07:54:17;;;;;;;4.32;3.42;;;;;;;;;;5037074;28;20266;-48
2021/07/17 07:56:43;;;;;;;4.35;3.65;;;;;;;;;;5036000;28;20263;-48
2021/07/17 07:59:09;;;;;;;4.03;3.45;;;;;;;;;;5023471;28;20223;-47
2021/07/17 08:01:35;;;;;;;5.50;3.50;;;;;;;;;;5023862;28;20219;-48
2021/07/17 08:04:01;;;;;;;2.80;2.60;;;;;;;;;;5036778;28;20204;-48
2021/07/17 08:06:27;;;;;;;4.32;2.65;;;;;;;;;;5035895;28;20252;-48
2021/07/17 08:08:53;;;;;;;4.72;3.38;;;;;;;;;;5036170;28;20604;-48
2021/07/17 08:11:19;;;;;;;4.03;3.05;;;;;;;;;;5035897;28;20218;-48
2021/07/17 08:13:45;;;;;;;3.40;2.80;;;;;;;;;;5035815;28;20180;-48
2021/07/17 08:16:11;;;;;;;2.75;2.55;;;;;;;;;;5035695;28;20178;-48
2021/07/17 08:18:37;;;;;;;2.70;2.50;;;;;;;;;;5033291;28;20262;-48
2021/07/17 08:21:03;;;;;;;3.00;2.70;;;;;;;;;;5036321;28;20251;-49
2021/07/17 08:23:29;;;;;;;4.00;2.83;;;;;;;;;;5036260;28;20207;-48
2021/07/17 08:25:55;;;;;;;2.75;2.50;;;;;;;;;;5034627;28;20524;-48
2021/07/17 08:28:21;;;;;;;2.60;2.40;;;;;;;;;;5035625;28;20172;-48
2021/07/17 08:30:47;;;;;;;2.60;2.40;;;;;;;;;;5036167;28;20267;-48
2021/07/17 08:33:13;;;;;;;3.15;2.60;;;;;;;;;;5024578;28;20173;-49
2021/07/17 08:35:39;;;;;;;4.32;2.53;;;;;;;;;;5016101;28;20188;-47
2021/07/17 08:38:05;;;;;;;3.90;2.60;;;;;;;;;;5026260;28;20184;-48
2021/07/17 08:40:32;;;;;;;2.97;2.00;;;;;;;;;;5036317;28;20175;-48
2021/07/17 08:42:58;;;;;;;2.92;2.30;;;;;;;;;;5035050;28;20214;-49
2021/07/17 08:45:24;;;;;;;2.80;2.38;;;;;;;;;;5035965;28;20191;-47
2021/07/17 08:47:51;;;;;;;2.20;2.00;;;;;;;;;;5035290;28;20190;-47
2021/07/17 08:50:18;;;;;;;2.63;2.28;;;;;;;;;;5035521;28;20705;-48
2021/07/17 08:52:45;;;;;;;3.92;1.92;;;;;;;;;;5035611;28;20180;-48
2021/07/17 08:55:11;;;;;;;2.25;2.00;;;;;;;;;;5036005;28;20190;-48
2021/07/17 08:57:38;;;;;;;2.35;1.58;;;;;;;;;;5034185;28;20219;-48
2021/07/17 09:00:12;;;;;;;1.80;1.70;;;;;;;;;;5035722;28;20255;-48
2021/07/17 09:02:39;;;;;;;1.88;1.73;;;;;;;;;;5035338;28;20230;-47
2021/07/17 09:05:06;;;;;;;2.03;1.42;;;;;;;;;;5035424;28;20198;-48
2021/07/17 09:07:32;;;;;;;3.65;1.88;;;;;;;;;;5034552;28;20187;-48
2021/07/17 09:09:58;;;;;;;2.92;1.42;;;;;;;;;;5034673;28;20184;-48
2021/07/17 09:12:25;;;;;;;1.15;1.08;;;;;;;;;;5034956;28;20539;-47
2021/07/17 09:14:52;;;;;;;1.20;1.10;;;;;;;;;;5034965;28;20179;-47
2021/07/17 09:17:25;;;;;;;1.23;1.02;;;;;;;;;;5034437;28;20191;-48
2021/07/17 09:19:52;;;;;;;1.20;0.90;;;;;;;;;;5035434;28;20172;-48
2021/07/17 09:22:31;;;;;;;1.60;1.08;;;;;;;;;;5033362;28;20851;-48
2021/07/17 09:25:06;;;;;;;1.00;0.98;;;;;;;;;;5033603;28;20200;-49
2021/07/17 09:27:32;;;;;;;0.90;0.90;;;;;;;;;;5033377;28;20258;-48
2021/07/17 09:29:58;;;;;;;1.88;1.23;;;;;;;;;;5034349;28;20283;-48
2021/07/17 09:32:24;;;;;;;0.95;0.82;;;;;;;;;;5034060;28;20184;-47
2021/07/17 09:34:50;;;;;;;1.10;1.00;;;;;;;;;;5034061;28;20179;-48
2021/07/17 09:37:21;;;;;;;1.10;1.00;;;;;;;;;;5032894;28;20184;-48
2021/07/17 09:39:49;;;;;;;1.00;1.00;;;;;;;;;;5034435;28;20184;-48
2021/07/17 09:42:16;;;;;;;1.30;1.20;;;;;;;;;;5034807;28;20225;-48
2021/07/17 09:44:42;;;;;;;1.42;0.98;;;;;;;;;;5034120;28;20206;-48
2021/07/17 09:47:15;;;;;;;1.13;0.75;;;;;;;;;;5034396;28;20442;-48
2021/07/17 09:49:41;;;;;;;0.65;0.65;;;;;;;;;;5034451;28;20172;-49
2021/07/17 09:52:12;;;;;;;1.20;0.70;;;;;;;;;;5034533;28;20210;-48
2021/07/17 09:54:39;;;;;;;2.05;1.00;;;;;;;;;;5034297;28;20226;-48
2021/07/17 09:57:05;;;;;;;0.93;0.93;;;;;;;;;;5033775;28;20183;-48
2021/07/17 09:59:31;;;;;;;1.05;0.95;;;;;;;;;;5033940;28;20190;-48
2021/07/17 10:01:57;;;;;;;1.50;1.40;;;;;;;;;;5034392;28;20685;-48
2021/07/17 10:04:23;;;;;;;2.40;1.42;;;;;;;;;;5034020;28;20508;-48
2021/07/17 10:06:56;;;;;;;1.42;1.33;;;;;;;;;;5033911;28;20614;-48
2021/07/17 10:09:24;;;;;;;1.52;1.40;;;;;;;;;;5034328;28;20183;-48
2021/07/17 10:11:58;;;;;;;1.67;1.58;;;;;;;;;;5034316;28;20168;-48
2021/07/17 10:14:25;;;;;;;2.05;1.63;;;;;;;;;;5034218;28;20176;-47
2021/07/17 10:16:58;;;;;;;1.45;1.35;;;;;;;;;;5033638;28;20215;-48
2021/07/17 10:19:25;;;;;;;1.75;1.55;;;;;;;;;;5034233;28;20259;-48
2021/07/17 10:21:51;;;;;;;2.00;1.90;;;;;;;;;;5034484;28;20306;-48
2021/07/17 10:24:18;;;;;;;2.90;1.92;;;;;;;;;;5034195;28;20195;-49
2021/07/17 10:26:45;;;;;;;2.10;1.90;;;;;;;;;;5033845;28;20179;-49
2021/07/17 10:29:12;;;;;;;6.00;2.17;;;;;;;;;;5033439;28;20175;-48
2021/07/17 10:31:39;;;;;;;4.68;2.33;;;;;;;;;;5034245;28;20180;-50
2021/07/17 10:34:05;;;;;;;7.32;2.78;;;;;;;;;;5034206;28;20206;-48
2021/07/17 10:36:33;;;;;;;3.83;2.80;;;;;;;;;;5033911;28;20540;-48
2021/07/17 10:39:01;;;;;;;9.20;3.50;;;;;;;;;;5034184;28;20541;-47
2021/07/17 10:41:31;;;;;;;10.45;3.25;;;;;;;;;;5033693;28;20601;-48
2021/07/17 10:43:57;;;;;;;8.73;3.60;;;;;;;;;;5033498;28;20271;-49
2021/07/17 10:46:31;;;;;;;4.00;3.50;;;;;;;;;;5033179;28;20532;-51
2021/07/17 10:48:58;;;;;;;5.43;3.20;;;;;;;;;;5014715;28;20165;-48
2021/07/17 10:51:27;;;;;;;4.32;3.22;;;;;;;;;;5022304;28;20180;-49
2021/07/17 10:53:54;;;;;;;5.45;3.80;;;;;;;;;;5034239;28;20168;-47
2021/07/17 10:56:29;;;;;;;4.63;3.50;;;;;;;;;;5032802;28;20255;-49
2021/07/17 10:59:07;;;;;;;5.53;3.85;;;;;;;;;;5020524;28;20180;-48
2021/07/17 11:01:51;;;;;;;5.40;3.00;;;;;;;;;;5033752;28;20183;-49
2021/07/17 11:04:29;;;;;;;5.07;3.65;;;;;;;;;;5033510;28;20187;-48
2021/07/17 11:06:55;;;;;;;5.03;3.20;;;;;;;;;;5031753;28;20474;-48
2021/07/17 11:09:30;;;;;;;6.93;4.32;;;;;;;;;;5032194;28;20223;-49
2021/07/17 11:12:14;;;;;;;7.35;3.50;;;;;;;;;;5033536;28;20203;-48
2021/07/17 11:14:40;;;;;;;5.00;3.47;;;;;;;;;;5033555;28;20180;-47
2021/07/17 11:17:06;;;;;;;7.80;3.85;;;;;;;;;;5036352;28;20180;-49
2021/07/17 11:19:32;;;;;;;4.22;3.75;;;;;;;;;;5037341;28;20222;-48
2021/07/17 11:22:14;;;;;;;5.40;3.50;;;;;;;;;;5037189;28;20188;-48
2021/07/17 11:24:41;;;;;;;6.55;3.50;;;;;;;;;;5037516;28;20202;-47
2021/07/17 11:27:14;;;;;;;11.65;4.30;;;;;;;;;;5036642;28;20176;-49
2021/07/17 11:29:41;;;;;;;8.15;3.92;;;;;;;;;;5036915;28;20207;-48
2021/07/17 11:32:07;;;;;;;10.57;3.80;;;;;;;;;;5037299;28;20187;-48
2021/07/17 11:34:35;;;;;;;8.10;3.70;;;;;;;;;;5036942;28;20183;-48
2021/07/17 11:37:06;;;;;;;6.18;3.90;;;;;;;;;;5036955;28;20183;-48
2021/07/17 11:39:33;;;;;;;7.55;3.90;;;;;;;;;;5037663;28;20210;-48
2021/07/17 11:42:00;;;;;;;4.38;3.80;;;;;;;;;;5037044;28;20175;-50
2021/07/17 11:44:37;;;;;;;4.60;3.33;;;;;;;;;;5036410;28;20590;-51
2021/07/17 11:47:03;;;;;;;4.30;3.03;;;;;;;;;;5017200;28;20172;-51
2021/07/17 11:49:39;;;;;;;4.40;3.58;;;;;;;;;;5025816;28;20184;-48
2021/07/17 11:52:07;;;;;;;4.85;3.50;;;;;;;;;;5037155;28;20176;-48
2021/07/17 11:54:39;;;;;;;5.07;3.25;;;;;;;;;;5036276;28;20577;-48
2021/07/17 11:57:10;;;;;;;4.90;3.47;;;;;;;;;;5036432;28;20558;-49
2021/07/17 11:59:37;;;;;;;3.30;3.10;;;;;;;;;;5036861;28;20198;-47
2021/07/17 12:02:10;;;;;;;3.38;3.17;;;;;;;;;;5036998;28;20182;-48
2021/07/17 12:04:50;;;;;;;4.07;3.45;;;;;;;;;;5037065;28;20234;-49
2021/07/17 12:07:17;;;;;;;4.45;3.35;;;;;;;;;;5017795;28;20882;-48
2021/07/17 12:09:46;;;;;;;4.80;3.38;;;;;;;;;;5023269;28;20183;-48
2021/07/17 12:12:12;;;;;;;5.28;4.20;;;;;;;;;;5036165;28;20179;-51
2021/07/17 12:14:38;;;;;;;4.63;3.55;;;;;;;;;;5036473;28;20625;-51
2021/07/17 12:17:05;;;;;;;4.97;3.40;;;;;;;;;;5035853;28;20183;-51
2021/07/17 12:19:31;;;;;;;5.00;3.53;;;;;;;;;;5036155;28;20183;-51
2021/07/17 12:21:57;;;;;;;4.25;3.85;;;;;;;;;;5036103;28;20485;-48
2021/07/17 12:24:23;;;;;;;8.27;4.00;;;;;;;;;;5036276;28;20262;-48
2021/07/17 12:26:49;;;;;;;4.00;3.60;;;;;;;;;;5035155;28;20806;-47
2021/07/17 12:29:15;;;;;;;3.72;3.13;;;;;;;;;;5035951;28;20172;-48
2021/07/17 12:31:57;;;;;;;5.22;3.30;;;;;;;;;;5035871;28;20199;-48
2021/07/17 12:34:23;;;;;;;4.00;3.60;;;;;;;;;;5028418;28;20184;-48
2021/07/17 12:36:49;;;;;;;4.88;3.20;;;;;;;;;;5035692;28;20602;-48
2021/07/17 12:39:20;;;;;;;4.97;3.63;;;;;;;;;;5035563;28;20206;-48
2021/07/17 12:41:46;;;;;;;3.53;2.97;;;;;;;;;;5035960;28;20230;-48
2021/07/17 12:44:15;;;;;;;3.50;3.15;;;;;;;;;;5035396;28;20215;-48
2021/07/17 12:46:43;;;;;;;4.43;3.55;;;;;;;;;;5034923;28;20290;-48
2021/07/17 12:49:09;;;;;;;3.58;3.28;;;;;;;;;;5036151;28;20510;-48
2021/07/17 12:51:37;;;;;;;2.97;2.67;;;;;;;;;;5035620;28;20214;-48
2021/07/17 12:54:10;;;;;;;4.15;3.08;;;;;;;;;;5035742;28;20178;-47
2021/07/17 12:56:44;;;;;;;6.57;3.03;;;;;;;;;;5034466;28;20176;-47
2021/07/17 12:59:13;;;;;;;3.08;2.78;;;;;;;;;;5033649;28;20191;-48
2021/07/17 13:01:44;;;;;;;4.35;2.58;;;;;;;;;;5032141;28;20535;-48
2021/07/17 13:04:11;;;;;;;3.83;2.40;;;;;;;;;;5035386;28;20218;-47
2021/07/17 13:06:37;;;;;;;2.63;2.42;;;;;;;;;;5034714;28;20325;-48
2021/07/17 13:09:04;;;;;;;2.90;2.55;;;;;;;;;;5035243;28;20539;-48
2021/07/17 13:11:30;;;;;;;2.92;2.60;;;;;;;;;;5034933;28;20183;-48
2021/07/17 13:13:57;;;;;;;2.72;2.53;;;;;;;;;;5034966;28;20503;-48
2021/07/17 13:16:26;;;;;;;2.20;2.00;;;;;;;;;;5034668;28;20183;-48
2021/07/17 13:18:52;;;;;;;2.53;2.33;;;;;;;;;;5035072;28;20219;-48
2021/07/17 13:21:19;;;;;;;2.55;2.00;;;;;;;;;;5035087;28;20589;-48
2021/07/17 13:23:56;;;;;;;3.45;1.90;;;;;;;;;;5035334;28;20180;-48
2021/07/17 13:26:24;;;;;;;1.73;1.63;;;;;;;;;;5034220;28;20241;-48
2021/07/17 13:28:50;;;;;;;2.22;1.98;;;;;;;;;;5035019;28;20577;-48
2021/07/17 13:31:17;;;;;;;2.22;2.08;;;;;;;;;;5034771;28;20442;-48
2021/07/17 13:33:43;;;;;;;2.60;1.85;;;;;;;;;;5023010;28;20329;-48
2021/07/17 13:36:09;;;;;;;1.95;1.85;;;;;;;;;;5035057;28;20454;-48
2021/07/17 13:38:36;;;;;;;2.42;2.22;;;;;;;;;;5034243;28;20321;-48
2021/07/17 13:41:12;;;;;;;2.60;2.40;;;;;;;;;;5026825;28;20184;-48
2021/07/17 13:43:39;;;;;;;2.83;2.63;;;;;;;;;;5039209;28;20179;-48
2021/07/17 13:46:06;;;;;;;2.85;2.65;;;;;;;;;;5032326;28;20571;-48
2021/07/17 13:48:32;;;;;;;2.97;2.78;;;;;;;;;;5033645;28;20183;-48
2021/07/17 13:51:08;;;;;;;5.25;3.00;;;;;;;;;;5034152;28;20188;-48
2021/07/17 13:53:34;;;;;;;4.20;3.00;;;;;;;;;;5034572;28;20274;-47
2021/07/17 13:56:08;;;;;;;3.78;3.28;;;;;;;;;;5033413;28;20511;-48
2021/07/17 13:58:34;;;;;;;3.67;3.00;;;;;;;;;;5034611;28;20172;-47
2021/07/17 14:01:03;;;;;;;4.57;3.60;;;;;;;;;;5034205;28;20179;-48
2021/07/17 14:03:33;;;;;;;4.20;3.80;;;;;;;;;;5034138;28;20199;-48
2021/07/17 14:06:06;;;;;;;4.22;3.83;;;;;;;;;;5030408;28;20222;-49
2021/07/17 14:08:33;;;;;;;6.00;4.75;;;;;;;;;;5034484;28;20574;-48
2021/07/17 14:11:00;;;;;;;7.80;5.55;;;;;;;;;;5034400;28;20171;-48
2021/07/17 14:13:26;;;;;;;8.32;6.90;;;;;;;;;;5034683;28;20195;-48
2021/07/17 14:15:53;;;;;;;10.43;8.32;;;;;;;;;;5033827;28;20184;-48
2021/07/17 14:18:19;;;;;;;9.13;7.63;;;;;;;;;;5033686;28;20270;-47
2021/07/17 14:20:45;;;;;;;11.18;7.60;;;;;;;;;;5034849;28;20235;-48
2021/07/17 14:23:11;;;;;;;15.93;11.73;;;;;;;;;;5034499;28;20255;-48
2021/07/17 14:25:38;;;;;;;17.67;13.40;;;;;;;;;;5034025;28;20211;-48
2021/07/17 14:28:04;;;;;;;16.08;12.82;;;;;;;;;;5033847;28;20172;-49
2021/07/17 14:30:30;;;;;;;14.63;11.90;;;;;;;;;;5033675;28;20619;-48
2021/07/17 14:32:56;;;;;;;20.67;14.02;;;;;;;;;;5033968;28;20283;-48
2021/07/17 14:35:23;;;;;;;21.75;15.88;;;;;;;;;;5034457;28;20198;-48